sensor_id;sensor_type;location;lat;lon;timestamp;P1;durP1;ratioP1;P2;durP2;ratioP2
24216;SDS011;12356;49.386;8.688;2023-05-29T00:01:22;7.13;;;3.22;;
24216;SDS011;12356;49.386;8.688;2023-05-29T00:03:54;5.47;;;3.10;;
24216;SDS011;12356;49.386;8.688;2023-05-29T00:06:24;6.00;;;3.50;;
24216;SDS011;12356;49.386;8.688;2023-05-29T00:08:55;7.07;;;3.25;;
24216;SDS011;12356;49.386;8.688;2023-05-29T00:11:25;6.35;;;3.10;;
24216;SDS011;12356;49.386;8.688;2023-05-29T00:13:56;5.55;;;3.13;;
24216;SDS011;12356;49.386;8.688;2023-05-29T00:16:26;5.20;;;3.20;;
24216;SDS011;12356;49.386;8.688;2023-05-29T00:18:57;5.47;;;2.92;;
24216;SDS011;12356;49.386;8.688;2023-05-29T00:21:28;6.47;;;3.25;;
24216;SDS011;12356;49.386;8.688;2023-05-29T00:23:58;5.35;;;3.10;;
24216;SDS011;12356;49.386;8.688;2023-05-29T00:26:30;7.88;;;3.05;;
24216;SDS011;12356;49.386;8.688;2023-05-29T00:29:01;5.93;;;3.28;;
24216;SDS011;12356;49.386;8.688;2023-05-29T00:31:31;6.65;;;3.00;;
24216;SDS011;12356;49.386;8.688;2023-05-29T00:34:02;8.70;;;3.00;;
24216;SDS011;12356;49.386;8.688;2023-05-29T00:36:33;4.55;;;2.83;;
24216;SDS011;12356;49.386;8.688;2023-05-29T00:39:04;5.57;;;3.13;;
24216;SDS011;12356;49.386;8.688;2023-05-29T00:41:35;5.43;;;2.90;;
24216;SDS011;12356;49.386;8.688;2023-05-29T00:44:05;5.45;;;2.92;;
24216;SDS011;12356;49.386;8.688;2023-05-29T00:46:36;7.47;;;3.45;;
24216;SDS011;12356;49.386;8.688;2023-05-29T00:49:06;6.85;;;3.28;;
24216;SDS011;12356;49.386;8.688;2023-05-29T00:51:37;5.25;;;3.03;;
24216;SDS011;12356;49.386;8.688;2023-05-29T00:54:08;8.68;;;3.20;;
24216;SDS011;12356;49.386;8.688;2023-05-29T00:56:46;6.40;;;3.20;;
24216;SDS011;12356;49.386;8.688;2023-05-29T00:59:18;5.15;;;3.13;;
24216;SDS011;12356;49.386;8.688;2023-05-29T01:01:51;6.53;;;3.33;;
24216;SDS011;12356;49.386;8.688;2023-05-29T01:04:22;4.97;;;2.85;;
24216;SDS011;12356;49.386;8.688;2023-05-29T01:06:53;7.07;;;3.28;;
24216;SDS011;12356;49.386;8.688;2023-05-29T01:09:25;7.75;;;2.80;;
24216;SDS011;12356;49.386;8.688;2023-05-29T01:23:37;6.22;;;3.03;;
24216;SDS011;12356;49.386;8.688;2023-05-29T01:26:11;7.15;;;2.95;;
24216;SDS011;12356;49.386;8.688;2023-05-29T01:28:53;9.45;;;3.20;;
24216;SDS011;12356;49.386;8.688;2023-05-29T01:31:28;5.00;;;2.90;;
24216;SDS011;12356;49.386;8.688;2023-05-29T01:34:00;5.90;;;3.15;;
24216;SDS011;12356;49.386;8.688;2023-05-29T01:36:30;6.38;;;2.90;;
24216;SDS011;12356;49.386;8.688;2023-05-29T01:39:02;4.65;;;3.10;;
24216;SDS011;12356;49.386;8.688;2023-05-29T01:41:33;6.65;;;2.95;;
24216;SDS011;12356;49.386;8.688;2023-05-29T01:44:05;7.40;;;3.00;;
24216;SDS011;12356;49.386;8.688;2023-05-29T01:46:41;6.85;;;3.22;;
24216;SDS011;12356;49.386;8.688;2023-05-29T01:49:12;6.00;;;2.83;;
24216;SDS011;12356;49.386;8.688;2023-05-29T01:51:45;6.82;;;2.70;;
24216;SDS011;12356;49.386;8.688;2023-05-29T01:54:15;11.50;;;3.20;;
24216;SDS011;12356;49.386;8.688;2023-05-29T01:56:46;6.00;;;3.00;;
24216;SDS011;12356;49.386;8.688;2023-05-29T01:59:17;4.95;;;2.95;;
24216;SDS011;12356;49.386;8.688;2023-05-29T02:01:48;6.75;;;2.80;;
24216;SDS011;12356;49.386;8.688;2023-05-29T02:04:19;5.95;;;3.03;;
24216;SDS011;12356;49.386;8.688;2023-05-29T02:06:50;9.35;;;3.70;;
24216;SDS011;12356;49.386;8.688;2023-05-29T02:09:22;6.70;;;3.10;;
24216;SDS011;12356;49.386;8.688;2023-05-29T02:11:53;5.60;;;2.88;;
24216;SDS011;12356;49.386;8.688;2023-05-29T02:14:24;5.18;;;3.15;;
24216;SDS011;12356;49.386;8.688;2023-05-29T02:16:55;4.57;;;2.83;;
24216;SDS011;12356;49.386;8.688;2023-05-29T02:19:27;5.82;;;3.20;;
24216;SDS011;12356;49.386;8.688;2023-05-29T02:21:57;5.68;;;2.92;;
24216;SDS011;12356;49.386;8.688;2023-05-29T02:24:28;7.13;;;2.97;;
24216;SDS011;12356;49.386;8.688;2023-05-29T02:26:58;7.93;;;3.30;;
24216;SDS011;12356;49.386;8.688;2023-05-29T02:29:29;6.70;;;3.00;;
24216;SDS011;12356;49.386;8.688;2023-05-29T02:32:00;5.45;;;2.88;;
24216;SDS011;12356;49.386;8.688;2023-05-29T02:34:30;5.97;;;3.05;;
24216;SDS011;12356;49.386;8.688;2023-05-29T02:37:01;10.20;;;3.03;;
24216;SDS011;12356;49.386;8.688;2023-05-29T02:39:32;5.28;;;3.20;;
24216;SDS011;12356;49.386;8.688;2023-05-29T02:42:03;6.68;;;3.20;;
24216;SDS011;12356;49.386;8.688;2023-05-29T02:44:34;7.43;;;3.47;;
24216;SDS011;12356;49.386;8.688;2023-05-29T02:47:04;5.68;;;2.90;;
24216;SDS011;12356;49.386;8.688;2023-05-29T02:49:35;5.40;;;3.30;;
24216;SDS011;12356;49.386;8.688;2023-05-29T02:52:05;6.95;;;3.20;;
24216;SDS011;12356;49.386;8.688;2023-05-29T02:54:36;6.28;;;3.35;;
24216;SDS011;12356;49.386;8.688;2023-05-29T02:57:06;6.38;;;3.45;;
24216;SDS011;12356;49.386;8.688;2023-05-29T02:59:37;7.80;;;3.17;;
24216;SDS011;12356;49.386;8.688;2023-05-29T03:02:08;10.27;;;3.25;;
24216;SDS011;12356;49.386;8.688;2023-05-29T03:04:38;5.25;;;3.13;;
24216;SDS011;12356;49.386;8.688;2023-05-29T03:07:09;5.88;;;3.50;;
24216;SDS011;12356;49.386;8.688;2023-05-29T03:09:39;7.53;;;2.97;;
24216;SDS011;12356;49.386;8.688;2023-05-29T03:12:10;7.88;;;3.38;;
24216;SDS011;12356;49.386;8.688;2023-05-29T03:14:41;4.75;;;3.30;;
24216;SDS011;12356;49.386;8.688;2023-05-29T03:17:11;5.85;;;3.00;;
24216;SDS011;12356;49.386;8.688;2023-05-29T03:19:42;7.32;;;3.45;;
24216;SDS011;12356;49.386;8.688;2023-05-29T03:22:13;7.15;;;3.42;;
24216;SDS011;12356;49.386;8.688;2023-05-29T03:24:44;6.55;;;3.20;;
24216;SDS011;12356;49.386;8.688;2023-05-29T03:27:14;6.13;;;2.97;;
24216;SDS011;12356;49.386;8.688;2023-05-29T03:29:45;6.25;;;2.95;;
24216;SDS011;12356;49.386;8.688;2023-05-29T03:32:15;5.45;;;3.55;;
24216;SDS011;12356;49.386;8.688;2023-05-29T03:34:46;5.32;;;3.10;;
24216;SDS011;12356;49.386;8.688;2023-05-29T03:37:17;6.20;;;3.50;;
24216;SDS011;12356;49.386;8.688;2023-05-29T03:39:48;6.40;;;3.53;;
24216;SDS011;12356;49.386;8.688;2023-05-29T03:42:19;4.95;;;3.53;;
24216;SDS011;12356;49.386;8.688;2023-05-29T03:44:50;7.43;;;3.70;;
24216;SDS011;12356;49.386;8.688;2023-05-29T03:47:20;9.55;;;3.80;;
24216;SDS011;12356;49.386;8.688;2023-05-29T03:49:51;7.13;;;3.55;;
24216;SDS011;12356;49.386;8.688;2023-05-29T03:52:22;7.00;;;3.70;;
24216;SDS011;12356;49.386;8.688;2023-05-29T03:54:52;9.73;;;3.55;;
24216;SDS011;12356;49.386;8.688;2023-05-29T03:57:23;7.35;;;3.80;;
24216;SDS011;12356;49.386;8.688;2023-05-29T03:59:53;6.28;;;3.90;;
24216;SDS011;12356;49.386;8.688;2023-05-29T04:02:24;8.02;;;3.63;;
24216;SDS011;12356;49.386;8.688;2023-05-29T04:04:55;6.63;;;3.97;;
24216;SDS011;12356;49.386;8.688;2023-05-29T04:07:25;6.32;;;4.00;;
24216;SDS011;12356;49.386;8.688;2023-05-29T04:09:56;6.60;;;3.67;;
24216;SDS011;12356;49.386;8.688;2023-05-29T04:12:26;8.02;;;3.83;;
24216;SDS011;12356;49.386;8.688;2023-05-29T04:14:57;7.63;;;4.30;;
24216;SDS011;12356;49.386;8.688;2023-05-29T04:17:28;5.80;;;3.75;;
24216;SDS011;12356;49.386;8.688;2023-05-29T04:19:59;6.22;;;3.40;;
24216;SDS011;12356;49.386;8.688;2023-05-29T04:22:36;6.78;;;3.75;;
24216;SDS011;12356;49.386;8.688;2023-05-29T04:25:07;12.40;;;4.15;;
24216;SDS011;12356;49.386;8.688;2023-05-29T04:27:38;7.97;;;4.10;;
24216;SDS011;12356;49.386;8.688;2023-05-29T04:30:10;6.68;;;3.85;;
24216;SDS011;12356;49.386;8.688;2023-05-29T04:32:41;7.97;;;4.10;;
24216;SDS011;12356;49.386;8.688;2023-05-29T04:35:12;8.90;;;4.10;;
24216;SDS011;12356;49.386;8.688;2023-05-29T04:37:43;8.43;;;3.83;;
24216;SDS011;12356;49.386;8.688;2023-05-29T04:40:14;7.22;;;4.00;;
24216;SDS011;12356;49.386;8.688;2023-05-29T04:42:47;7.95;;;4.03;;
24216;SDS011;12356;49.386;8.688;2023-05-29T04:45:19;12.65;;;4.22;;
24216;SDS011;12356;49.386;8.688;2023-05-29T04:47:50;6.63;;;4.00;;
24216;SDS011;12356;49.386;8.688;2023-05-29T04:50:22;5.63;;;3.97;;
24216;SDS011;12356;49.386;8.688;2023-05-29T04:52:53;6.13;;;4.07;;
24216;SDS011;12356;49.386;8.688;2023-05-29T04:55:24;7.65;;;3.90;;
24216;SDS011;12356;49.386;8.688;2023-05-29T04:57:54;7.90;;;4.00;;
24216;SDS011;12356;49.386;8.688;2023-05-29T05:00:25;6.35;;;3.85;;
24216;SDS011;12356;49.386;8.688;2023-05-29T05:02:56;7.38;;;4.05;;
24216;SDS011;12356;49.386;8.688;2023-05-29T05:05:27;7.22;;;3.75;;
24216;SDS011;12356;49.386;8.688;2023-05-29T05:07:58;8.88;;;4.20;;
24216;SDS011;12356;49.386;8.688;2023-05-29T05:10:29;7.13;;;4.18;;
24216;SDS011;12356;49.386;8.688;2023-05-29T05:13:00;7.68;;;4.05;;
24216;SDS011;12356;49.386;8.688;2023-05-29T05:18:03;8.73;;;3.67;;
24216;SDS011;12356;49.386;8.688;2023-05-29T05:20:33;6.70;;;4.00;;
24216;SDS011;12356;49.386;8.688;2023-05-29T05:23:05;7.55;;;4.00;;
24216;SDS011;12356;49.386;8.688;2023-05-29T05:25:36;5.57;;;3.53;;
24216;SDS011;12356;49.386;8.688;2023-05-29T05:28:08;6.50;;;3.90;;
24216;SDS011;12356;49.386;8.688;2023-05-29T05:30:39;8.40;;;3.78;;
24216;SDS011;12356;49.386;8.688;2023-05-29T05:33:10;8.20;;;3.75;;
24216;SDS011;12356;49.386;8.688;2023-05-29T05:35:41;9.07;;;3.90;;
24216;SDS011;12356;49.386;8.688;2023-05-29T05:38:11;7.03;;;4.13;;
24216;SDS011;12356;49.386;8.688;2023-05-29T05:40:42;8.88;;;3.65;;
24216;SDS011;12356;49.386;8.688;2023-05-29T05:43:14;7.88;;;3.83;;
24216;SDS011;12356;49.386;8.688;2023-05-29T05:45:45;8.23;;;3.92;;
24216;SDS011;12356;49.386;8.688;2023-05-29T05:48:15;7.40;;;3.65;;
24216;SDS011;12356;49.386;8.688;2023-05-29T05:50:46;6.53;;;3.92;;
24216;SDS011;12356;49.386;8.688;2023-05-29T05:53:17;6.07;;;3.47;;
24216;SDS011;12356;49.386;8.688;2023-05-29T05:55:47;13.15;;;3.83;;
24216;SDS011;12356;49.386;8.688;2023-05-29T05:58:18;6.95;;;3.65;;
24216;SDS011;12356;49.386;8.688;2023-05-29T06:00:48;7.75;;;3.88;;
24216;SDS011;12356;49.386;8.688;2023-05-29T06:03:22;8.27;;;3.70;;
24216;SDS011;12356;49.386;8.688;2023-05-29T06:05:52;8.90;;;3.85;;
24216;SDS011;12356;49.386;8.688;2023-05-29T06:08:24;7.55;;;3.83;;
24216;SDS011;12356;49.386;8.688;2023-05-29T06:10:55;7.13;;;3.53;;
24216;SDS011;12356;49.386;8.688;2023-05-29T06:13:25;7.63;;;3.85;;
24216;SDS011;12356;49.386;8.688;2023-05-29T06:15:56;5.93;;;3.88;;
24216;SDS011;12356;49.386;8.688;2023-05-29T06:18:26;8.00;;;3.85;;
24216;SDS011;12356;49.386;8.688;2023-05-29T06:20:57;7.43;;;3.88;;
24216;SDS011;12356;49.386;8.688;2023-05-29T06:23:27;6.63;;;3.60;;
24216;SDS011;12356;49.386;8.688;2023-05-29T06:25:58;6.93;;;3.95;;
24216;SDS011;12356;49.386;8.688;2023-05-29T06:28:29;9.50;;;3.63;;
24216;SDS011;12356;49.386;8.688;2023-05-29T06:31:00;8.63;;;3.97;;
24216;SDS011;12356;49.386;8.688;2023-05-29T06:33:30;10.90;;;3.85;;
24216;SDS011;12356;49.386;8.688;2023-05-29T06:36:01;6.03;;;3.65;;
24216;SDS011;12356;49.386;8.688;2023-05-29T06:38:31;7.13;;;3.67;;
24216;SDS011;12356;49.386;8.688;2023-05-29T06:41:02;7.72;;;4.15;;
24216;SDS011;12356;49.386;8.688;2023-05-29T06:43:32;9.85;;;3.78;;
24216;SDS011;12356;49.386;8.688;2023-05-29T06:46:03;8.32;;;4.05;;
24216;SDS011;12356;49.386;8.688;2023-05-29T06:48:34;6.13;;;3.83;;
24216;SDS011;12356;49.386;8.688;2023-05-29T06:51:05;7.05;;;3.72;;
24216;SDS011;12356;49.386;8.688;2023-05-29T06:53:39;8.27;;;4.18;;
24216;SDS011;12356;49.386;8.688;2023-05-29T06:56:09;10.38;;;4.47;;
24216;SDS011;12356;49.386;8.688;2023-05-29T06:58:40;6.22;;;3.92;;
24216;SDS011;12356;49.386;8.688;2023-05-29T07:01:11;6.88;;;4.00;;
24216;SDS011;12356;49.386;8.688;2023-05-29T07:03:41;7.95;;;3.90;;
24216;SDS011;12356;49.386;8.688;2023-05-29T07:06:12;10.15;;;4.32;;
24216;SDS011;12356;49.386;8.688;2023-05-29T07:08:42;8.40;;;3.80;;
24216;SDS011;12356;49.386;8.688;2023-05-29T07:11:13;8.52;;;3.72;;
24216;SDS011;12356;49.386;8.688;2023-05-29T07:13:44;6.28;;;3.65;;
24216;SDS011;12356;49.386;8.688;2023-05-29T07:16:14;6.85;;;3.53;;
24216;SDS011;12356;49.386;8.688;2023-05-29T07:18:45;7.03;;;3.92;;
24216;SDS011;12356;49.386;8.688;2023-05-29T07:21:16;7.40;;;3.80;;
24216;SDS011;12356;49.386;8.688;2023-05-29T07:26:18;8.30;;;3.80;;
24216;SDS011;12356;49.386;8.688;2023-05-29T07:28:50;6.78;;;3.53;;
24216;SDS011;12356;49.386;8.688;2023-05-29T07:31:22;7.45;;;3.67;;
24216;SDS011;12356;49.386;8.688;2023-05-29T07:33:53;6.60;;;3.28;;
24216;SDS011;12356;49.386;8.688;2023-05-29T07:36:29;5.90;;;3.63;;
24216;SDS011;12356;49.386;8.688;2023-05-29T07:39:01;4.95;;;3.33;;
24216;SDS011;12356;49.386;8.688;2023-05-29T07:41:32;5.97;;;3.17;;
24216;SDS011;12356;49.386;8.688;2023-05-29T07:44:03;5.82;;;2.92;;
24216;SDS011;12356;49.386;8.688;2023-05-29T07:46:33;6.15;;;3.53;;
24216;SDS011;12356;49.386;8.688;2023-05-29T07:49:04;5.78;;;3.35;;
24216;SDS011;12356;49.386;8.688;2023-05-29T07:51:35;5.53;;;3.17;;
24216;SDS011;12356;49.386;8.688;2023-05-29T07:54:06;4.97;;;3.40;;
24216;SDS011;12356;49.386;8.688;2023-05-29T07:56:37;6.18;;;3.70;;
24216;SDS011;12356;49.386;8.688;2023-05-29T07:59:08;6.13;;;3.20;;
24216;SDS011;12356;49.386;8.688;2023-05-29T08:01:38;6.07;;;3.58;;
24216;SDS011;12356;49.386;8.688;2023-05-29T08:04:09;5.60;;;3.30;;
24216;SDS011;12356;49.386;8.688;2023-05-29T08:06:40;7.18;;;3.58;;
24216;SDS011;12356;49.386;8.688;2023-05-29T08:09:12;6.28;;;3.30;;
24216;SDS011;12356;49.386;8.688;2023-05-29T08:11:43;7.18;;;3.30;;
24216;SDS011;12356;49.386;8.688;2023-05-29T08:14:15;6.78;;;3.38;;
24216;SDS011;12356;49.386;8.688;2023-05-29T08:16:46;8.73;;;3.88;;
24216;SDS011;12356;49.386;8.688;2023-05-29T08:19:17;5.15;;;3.03;;
24216;SDS011;12356;49.386;8.688;2023-05-29T08:21:47;5.65;;;3.38;;
24216;SDS011;12356;49.386;8.688;2023-05-29T08:24:18;6.03;;;3.38;;
24216;SDS011;12356;49.386;8.688;2023-05-29T08:26:50;5.95;;;2.90;;
24216;SDS011;12356;49.386;8.688;2023-05-29T08:29:20;4.88;;;3.20;;
24216;SDS011;12356;49.386;8.688;2023-05-29T08:31:51;4.93;;;3.05;;
24216;SDS011;12356;49.386;8.688;2023-05-29T08:34:22;6.15;;;3.40;;
24216;SDS011;12356;49.386;8.688;2023-05-29T08:36:52;4.90;;;3.03;;
24216;SDS011;12356;49.386;8.688;2023-05-29T08:39:25;7.40;;;3.80;;
24216;SDS011;12356;49.386;8.688;2023-05-29T08:41:59;4.95;;;3.30;;
24216;SDS011;12356;49.386;8.688;2023-05-29T08:44:35;8.52;;;3.38;;
24216;SDS011;12356;49.386;8.688;2023-05-29T08:47:10;5.30;;;3.30;;
24216;SDS011;12356;49.386;8.688;2023-05-29T08:49:45;6.47;;;3.08;;
24216;SDS011;12356;49.386;8.688;2023-05-29T08:52:22;5.88;;;3.45;;
24216;SDS011;12356;49.386;8.688;2023-05-29T08:54:55;7.15;;;3.17;;
24216;SDS011;12356;49.386;8.688;2023-05-29T08:57:27;6.68;;;3.10;;
24216;SDS011;12356;49.386;8.688;2023-05-29T09:02:30;8.95;;;3.40;;
24216;SDS011;12356;49.386;8.688;2023-05-29T09:05:00;4.30;;;2.95;;
24216;SDS011;12356;49.386;8.688;2023-05-29T09:07:31;7.93;;;3.58;;
24216;SDS011;12356;49.386;8.688;2023-05-29T09:10:02;6.43;;;3.10;;
24216;SDS011;12356;49.386;8.688;2023-05-29T09:12:33;8.40;;;3.10;;
24216;SDS011;12356;49.386;8.688;2023-05-29T09:15:08;6.13;;;3.20;;
24216;SDS011;12356;49.386;8.688;2023-05-29T09:17:51;6.60;;;3.20;;
24216;SDS011;12356;49.386;8.688;2023-05-29T09:20:23;7.70;;;3.30;;
24216;SDS011;12356;49.386;8.688;2023-05-29T09:22:55;6.90;;;3.28;;
24216;SDS011;12356;49.386;8.688;2023-05-29T09:25:28;6.78;;;3.10;;
24216;SDS011;12356;49.386;8.688;2023-05-29T09:28:02;8.38;;;3.20;;
24216;SDS011;12356;49.386;8.688;2023-05-29T09:30:41;6.20;;;3.50;;
24216;SDS011;12356;49.386;8.688;2023-05-29T09:33:13;6.10;;;3.42;;
24216;SDS011;12356;49.386;8.688;2023-05-29T09:35:45;6.65;;;3.28;;
24216;SDS011;12356;49.386;8.688;2023-05-29T09:38:17;10.02;;;3.63;;
24216;SDS011;12356;49.386;8.688;2023-05-29T09:40:49;6.45;;;3.22;;
24216;SDS011;12356;49.386;8.688;2023-05-29T09:43:19;5.38;;;3.28;;
24216;SDS011;12356;49.386;8.688;2023-05-29T09:45:50;5.90;;;3.28;;
24216;SDS011;12356;49.386;8.688;2023-05-29T09:48:24;9.20;;;3.58;;
24216;SDS011;12356;49.386;8.688;2023-05-29T09:50:56;5.35;;;2.63;;
24216;SDS011;12356;49.386;8.688;2023-05-29T09:53:28;4.53;;;3.28;;
24216;SDS011;12356;49.386;8.688;2023-05-29T09:55:59;6.00;;;3.38;;
24216;SDS011;12356;49.386;8.688;2023-05-29T09:58:30;5.50;;;3.38;;
24216;SDS011;12356;49.386;8.688;2023-05-29T10:01:02;6.30;;;3.33;;
24216;SDS011;12356;49.386;8.688;2023-05-29T10:03:33;5.82;;;3.53;;
24216;SDS011;12356;49.386;8.688;2023-05-29T10:06:05;6.15;;;3.17;;
24216;SDS011;12356;49.386;8.688;2023-05-29T10:08:40;5.82;;;3.20;;
24216;SDS011;12356;49.386;8.688;2023-05-29T10:11:20;5.25;;;3.13;;
24216;SDS011;12356;49.386;8.688;2023-05-29T10:13:53;8.73;;;3.30;;
24216;SDS011;12356;49.386;8.688;2023-05-29T10:16:26;6.57;;;3.50;;
24216;SDS011;12356;49.386;8.688;2023-05-29T10:18:58;5.30;;;3.10;;
24216;SDS011;12356;49.386;8.688;2023-05-29T10:21:31;5.20;;;3.03;;
24216;SDS011;12356;49.386;8.688;2023-05-29T10:24:06;4.97;;;3.17;;
24216;SDS011;12356;49.386;8.688;2023-05-29T10:26:38;7.73;;;3.57;;
24216;SDS011;12356;49.386;8.688;2023-05-29T10:35:14;5.32;;;3.08;;
24216;SDS011;12356;49.386;8.688;2023-05-29T10:38:02;5.28;;;3.25;;
24216;SDS011;12356;49.386;8.688;2023-05-29T10:40:40;5.15;;;3.20;;
24216;SDS011;12356;49.386;8.688;2023-05-29T10:46:02;9.95;;;3.40;;
24216;SDS011;12356;49.386;8.688;2023-05-29T10:48:36;5.18;;;3.60;;
24216;SDS011;12356;49.386;8.688;2023-05-29T10:51:08;6.10;;;3.05;;
24216;SDS011;12356;49.386;8.688;2023-05-29T10:53:53;6.05;;;3.42;;
24216;SDS011;12356;49.386;8.688;2023-05-29T10:56:28;7.18;;;3.40;;
24216;SDS011;12356;49.386;8.688;2023-05-29T10:59:00;5.15;;;3.30;;
24216;SDS011;12356;49.386;8.688;2023-05-29T11:01:33;8.00;;;3.60;;
24216;SDS011;12356;49.386;8.688;2023-05-29T11:06:47;6.15;;;3.40;;
24216;SDS011;12356;49.386;8.688;2023-05-29T11:09:31;6.97;;;3.30;;
24216;SDS011;12356;49.386;8.688;2023-05-29T11:12:15;5.30;;;3.35;;
24216;SDS011;12356;49.386;8.688;2023-05-29T11:15:09;7.68;;;3.42;;
24216;SDS011;12356;49.386;8.688;2023-05-29T11:17:46;6.38;;;3.40;;
24216;SDS011;12356;49.386;8.688;2023-05-29T11:20:20;6.05;;;3.40;;
24216;SDS011;12356;49.386;8.688;2023-05-29T11:23:04;5.30;;;3.40;;
24216;SDS011;12356;49.386;8.688;2023-05-29T11:25:37;6.07;;;3.25;;
24216;SDS011;12356;49.386;8.688;2023-05-29T11:28:08;6.00;;;3.50;;
24216;SDS011;12356;49.386;8.688;2023-05-29T11:30:49;4.85;;;3.17;;
24216;SDS011;12356;49.386;8.688;2023-05-29T11:33:24;6.00;;;3.30;;
24216;SDS011;12356;49.386;8.688;2023-05-29T11:35:57;4.82;;;3.40;;
24216;SDS011;12356;49.386;8.688;2023-05-29T11:38:28;6.78;;;3.05;;
24216;SDS011;12356;49.386;8.688;2023-05-29T11:41:01;6.15;;;3.20;;
24216;SDS011;12356;49.386;8.688;2023-05-29T11:43:32;9.83;;;3.13;;
24216;SDS011;12356;49.386;8.688;2023-05-29T11:46:13;5.05;;;3.30;;
24216;SDS011;12356;49.386;8.688;2023-05-29T11:48:48;5.05;;;3.30;;
24216;SDS011;12356;49.386;8.688;2023-05-29T11:51:19;4.40;;;3.13;;
24216;SDS011;12356;49.386;8.688;2023-05-29T11:53:50;4.53;;;3.00;;
24216;SDS011;12356;49.386;8.688;2023-05-29T11:56:29;4.15;;;2.90;;
24216;SDS011;12356;49.386;8.688;2023-05-29T11:59:00;5.80;;;3.25;;
24216;SDS011;12356;49.386;8.688;2023-05-29T12:01:34;4.13;;;2.85;;
24216;SDS011;12356;49.386;8.688;2023-05-29T12:04:14;5.93;;;2.78;;
24216;SDS011;12356;49.386;8.688;2023-05-29T12:06:45;4.75;;;3.00;;
24216;SDS011;12356;49.386;8.688;2023-05-29T12:09:29;4.10;;;2.90;;
24216;SDS011;12356;49.386;8.688;2023-05-29T12:12:03;6.72;;;3.05;;
24216;SDS011;12356;49.386;8.688;2023-05-29T12:14:34;6.43;;;3.20;;
24216;SDS011;12356;49.386;8.688;2023-05-29T12:17:05;5.57;;;2.95;;
24216;SDS011;12356;49.386;8.688;2023-05-29T12:19:35;4.15;;;3.00;;
24216;SDS011;12356;49.386;8.688;2023-05-29T12:22:06;6.03;;;2.75;;
24216;SDS011;12356;49.386;8.688;2023-05-29T12:24:36;6.38;;;2.78;;
24216;SDS011;12356;49.386;8.688;2023-05-29T12:27:07;3.72;;;2.80;;
24216;SDS011;12356;49.386;8.688;2023-05-29T12:29:38;3.75;;;2.60;;
24216;SDS011;12356;49.386;8.688;2023-05-29T12:32:10;4.53;;;2.78;;
24216;SDS011;12356;49.386;8.688;2023-05-29T12:34:40;7.90;;;2.83;;
24216;SDS011;12356;49.386;8.688;2023-05-29T12:37:11;5.85;;;2.65;;
24216;SDS011;12356;49.386;8.688;2023-05-29T12:39:44;4.75;;;2.75;;
24216;SDS011;12356;49.386;8.688;2023-05-29T12:42:16;5.97;;;2.97;;
24216;SDS011;12356;49.386;8.688;2023-05-29T12:44:46;6.53;;;3.03;;
24216;SDS011;12356;49.386;8.688;2023-05-29T12:47:23;4.22;;;2.88;;
24216;SDS011;12356;49.386;8.688;2023-05-29T12:49:54;9.77;;;2.80;;
24216;SDS011;12356;49.386;8.688;2023-05-29T12:52:26;4.43;;;2.95;;
24216;SDS011;12356;49.386;8.688;2023-05-29T12:54:56;7.80;;;2.88;;
24216;SDS011;12356;49.386;8.688;2023-05-29T12:57:27;5.20;;;2.72;;
24216;SDS011;12356;49.386;8.688;2023-05-29T12:59:57;6.43;;;2.80;;
24216;SDS011;12356;49.386;8.688;2023-05-29T13:02:28;5.65;;;2.90;;
24216;SDS011;12356;49.386;8.688;2023-05-29T13:04:59;3.80;;;2.60;;
24216;SDS011;12356;49.386;8.688;2023-05-29T13:07:30;3.67;;;2.72;;
24216;SDS011;12356;49.386;8.688;2023-05-29T13:10:01;6.50;;;3.00;;
24216;SDS011;12356;49.386;8.688;2023-05-29T13:12:32;4.93;;;2.70;;
24216;SDS011;12356;49.386;8.688;2023-05-29T13:15:02;4.28;;;2.67;;
24216;SDS011;12356;49.386;8.688;2023-05-29T13:17:33;4.03;;;2.60;;
24216;SDS011;12356;49.386;8.688;2023-05-29T13:20:05;5.00;;;2.83;;
24216;SDS011;12356;49.386;8.688;2023-05-29T13:22:38;4.05;;;2.58;;
24216;SDS011;12356;49.386;8.688;2023-05-29T13:25:11;6.65;;;2.70;;
24216;SDS011;12356;49.386;8.688;2023-05-29T13:27:44;5.88;;;2.78;;
24216;SDS011;12356;49.386;8.688;2023-05-29T13:30:16;5.35;;;2.83;;
24216;SDS011;12356;49.386;8.688;2023-05-29T13:32:47;3.85;;;2.72;;
24216;SDS011;12356;49.386;8.688;2023-05-29T13:35:18;4.43;;;2.60;;
24216;SDS011;12356;49.386;8.688;2023-05-29T13:37:49;4.28;;;2.38;;
24216;SDS011;12356;49.386;8.688;2023-05-29T13:40:20;3.38;;;2.50;;
24216;SDS011;12356;49.386;8.688;2023-05-29T13:42:50;4.63;;;2.65;;
24216;SDS011;12356;49.386;8.688;2023-05-29T13:45:21;4.15;;;2.70;;
24216;SDS011;12356;49.386;8.688;2023-05-29T13:47:51;3.60;;;2.92;;
24216;SDS011;12356;49.386;8.688;2023-05-29T13:50:24;5.32;;;2.75;;
24216;SDS011;12356;49.386;8.688;2023-05-29T13:55:25;3.40;;;2.55;;
24216;SDS011;12356;49.386;8.688;2023-05-29T13:57:55;5.63;;;2.97;;
24216;SDS011;12356;49.386;8.688;2023-05-29T14:00:27;3.95;;;2.83;;
24216;SDS011;12356;49.386;8.688;2023-05-29T14:02:58;4.30;;;2.60;;
24216;SDS011;12356;49.386;8.688;2023-05-29T14:05:29;4.18;;;2.80;;
24216;SDS011;12356;49.386;8.688;2023-05-29T14:07:59;3.50;;;2.60;;
24216;SDS011;12356;49.386;8.688;2023-05-29T14:10:30;9.68;;;2.65;;
24216;SDS011;12356;49.386;8.688;2023-05-29T14:13:01;4.95;;;2.90;;
24216;SDS011;12356;49.386;8.688;2023-05-29T14:15:31;4.70;;;2.90;;
24216;SDS011;12356;49.386;8.688;2023-05-29T14:18:02;4.80;;;2.47;;
24216;SDS011;12356;49.386;8.688;2023-05-29T14:20:33;4.50;;;2.50;;
24216;SDS011;12356;49.386;8.688;2023-05-29T14:23:03;3.97;;;2.63;;
24216;SDS011;12356;49.386;8.688;2023-05-29T14:25:34;5.60;;;2.65;;
24216;SDS011;12356;49.386;8.688;2023-05-29T14:28:04;3.33;;;2.42;;
24216;SDS011;12356;49.386;8.688;2023-05-29T14:30:36;4.77;;;2.57;;
24216;SDS011;12356;49.386;8.688;2023-05-29T14:33:08;7.50;;;2.53;;
24216;SDS011;12356;49.386;8.688;2023-05-29T14:35:38;3.20;;;2.60;;
24216;SDS011;12356;49.386;8.688;2023-05-29T14:38:09;3.78;;;2.60;;
24216;SDS011;12356;49.386;8.688;2023-05-29T14:40:39;4.07;;;2.65;;
24216;SDS011;12356;49.386;8.688;2023-05-29T14:43:10;3.70;;;2.63;;
24216;SDS011;12356;49.386;8.688;2023-05-29T14:45:41;8.52;;;2.85;;
24216;SDS011;12356;49.386;8.688;2023-05-29T14:48:11;3.53;;;2.63;;
24216;SDS011;12356;49.386;8.688;2023-05-29T14:50:42;3.72;;;2.80;;
24216;SDS011;12356;49.386;8.688;2023-05-29T14:53:12;5.75;;;2.70;;
24216;SDS011;12356;49.386;8.688;2023-05-29T14:55:43;4.90;;;2.70;;
24216;SDS011;12356;49.386;8.688;2023-05-29T14:58:13;5.18;;;2.60;;
24216;SDS011;12356;49.386;8.688;2023-05-29T15:00:44;3.40;;;2.45;;
24216;SDS011;12356;49.386;8.688;2023-05-29T15:03:15;3.60;;;2.58;;
24216;SDS011;12356;49.386;8.688;2023-05-29T15:05:45;3.65;;;2.55;;
24216;SDS011;12356;49.386;8.688;2023-05-29T15:08:16;3.55;;;2.80;;
24216;SDS011;12356;49.386;8.688;2023-05-29T15:10:47;3.47;;;2.40;;
24216;SDS011;12356;49.386;8.688;2023-05-29T15:13:17;3.25;;;2.53;;
24216;SDS011;12356;49.386;8.688;2023-05-29T15:15:48;4.75;;;2.58;;
24216;SDS011;12356;49.386;8.688;2023-05-29T15:18:18;3.90;;;2.40;;
24216;SDS011;12356;49.386;8.688;2023-05-29T15:20:49;3.83;;;2.70;;
24216;SDS011;12356;49.386;8.688;2023-05-29T15:23:19;3.22;;;2.47;;
24216;SDS011;12356;49.386;8.688;2023-05-29T15:25:52;3.85;;;2.55;;
24216;SDS011;12356;49.386;8.688;2023-05-29T15:28:23;5.43;;;2.60;;
24216;SDS011;12356;49.386;8.688;2023-05-29T15:30:54;5.38;;;2.60;;
24216;SDS011;12356;49.386;8.688;2023-05-29T15:33:24;4.85;;;2.40;;
24216;SDS011;12356;49.386;8.688;2023-05-29T15:35:55;3.83;;;2.70;;
24216;SDS011;12356;49.386;8.688;2023-05-29T15:38:25;4.63;;;2.65;;
24216;SDS011;12356;49.386;8.688;2023-05-29T15:40:56;4.85;;;2.85;;
24216;SDS011;12356;49.386;8.688;2023-05-29T15:43:26;5.57;;;2.88;;
24216;SDS011;12356;49.386;8.688;2023-05-29T15:45:57;3.97;;;2.80;;
24216;SDS011;12356;49.386;8.688;2023-05-29T15:48:28;3.92;;;2.63;;